AirNav   Pilot Hours Calculator
 
 599 users online  

NC15 Raeford Rhyne Airpark
Statesville, North Carolina, USA

GOING TO STATESVILLE?


FAA INFORMATION EFFECTIVE 22 APRIL 2021

Location

FAA Identifier: NC15
Lat/Long: 35-57-25.4790N 080-58-44.2740W
35-57.424650N 080-58.737900W
35.9570775,-80.9789650
(estimated)
Elevation: 1140 ft. / 347 m (estimated)
Variation: 05W (1985)
From city: 11 miles N of STATESVILLE, NC
Time zone: UTC -4 (UTC -5 during Standard Time)
Zip code: 28625

Airport Operations

Airport use: Private use. Permission required prior to landing
Activation date: 02/1969
Control tower: no
ARTCC: ATLANTA CENTER
FSS: RALEIGH FLIGHT SERVICE STATION
Attendance: UNATNDD
Wind indicator: yes
Segmented circle: no

Airport Communications

WX AWOS-3 at SVH (12 nm S): 119.225 (704-873-1978)
WX AWOS-3 at UKF (17 nm N): 126.625 (336-696-3788)

Nearby radio navigation aids

VOR radial/distance  VOR name  Freq  Var
BZMr073/13.8BARRETTS MOUNTAIN VOR/DME110.8006W

 
NDB name  Hdg/Dist  Freq  Var  ID
ZEPHYR218/24.532608WZEF --.. . ..-.
ASHEE157/33.141007WJUH .--- ..- ....
FIDDLERS073/36.839107WFIQ ..-. .. --.-

Airport Services

Parking: tiedowns
Airframe service: NONE
Powerplant service: NONE

Runway Information

Runway 2/20

Dimensions: 2500 x 200 ft. / 762 x 61 m
Surface: turf, in good condition
RUNWAY 2  RUNWAY 20
Traffic pattern: rightleft
Obstructions: 25 ft. trees, 200 ft. from runway, 8:1 slope to clear
ADDL OBSTN: ROAD 0' FROM THR BTN RWY 20 AND POWERLINE.
25 ft. pline, 50 ft. from runway

Airport Ownership and Management from official FAA records

Ownership: Privately-owned
Owner: JERRY RHYNE
449 MTN VIEW RD
STATESVILLE, NC 28625
Phone (704) 881-2763
Manager: JERRY PHYNE
449 MTN VIEW RD
STATESVILLE, NC 28625
Phone (704) 881-2763

Airport Operational Statistics

Aircraft based on the field: 1
Single engine airplanes: 1
    
Aircraft operations: 150/year *
67% local general aviation
33% transient general aviation
* for 12-month period ending 17 February 1986

Additional Remarks

HOT AIR BALLOON ACTIVITY ON RWY & SURROUNDING SITE.
FOR CD CTC ATLANTA ARTCC AT 770-210-7692.

Instrument Procedures

There are no published instrument procedures at NC15.

Some nearby airports with instrument procedures:

KSVH - Statesville Regional Airport (12 nm S)
KUKF - Wilkes County Airport (17 nm N)
14A - Lake Norman Airpark (21 nm S)
KZEF - Elkin Municipal Airport (22 nm NE)
KHKY - Hickory Regional Airport (24 nm SW)
 
Loc | Ops | Rwys | IFR | FBO | Links
Com | Nav | Svcs | Stats | Notes
Area around NC15 (Raeford Rhyne Airpark)
 
Road maps at: MapQuest Bing Google
 
Aerial photo
No photo
 
Sectional chart

 
Airport distance calculator
Flying to Raeford Rhyne Airpark? Find the distance to fly.

From to NC15

Sunrise and sunset
Times for 12-May-2021
 Local
(UTC-4)
 Zulu
(UTC)
Morning civil twilight05:5309:53
Sunrise06:2210:22
Sunset20:1900:19
Evening civil twilight20:4700:47

Current date and time
Zulu (UTC)  12-May-2021 05:28:09
Local (UTC-4)  12-May-2021 01:28:09
 
METAR
KSVH 
13nm S 
120515Z AUTO 36003KT 10SM OVC070 16/13 A3013 RMK AO2 T01560132
KUKF 
17nm N 
120515Z AUTO 00000KT 10SM BKN070 BKN080 OVC100 12/10 A3021 RMK AO2
KHKY 
23nm SW 
120453Z AUTO 00000KT 10SM OVC065 16/14 A3014 RMK AO2 SLP189 T01560139 402000122
TAF
KHKY 
23nm SW 
120248Z 1203/1224 00000KT P6SM BKN080 FM120600 03004KT P6SM VCSH BKN060 FM121100 04009KT 6SM -RA BR OVC045 FM121400 05008KT 5SM -RA BR OVC026 FM121800 05007KT P6SM OVC035 FM122100 07005KT P6SM BKN060
NOTAMs
Click for the latest NOTAMs
NOTAMs are issued by the DoD/FAA and will open in a separate window not controlled by AirNav.

 

 
 

Would you like to see your business listed on this page?

 If your business provides an interesting product or service to pilots, flight crews, aircraft, or users of the Raeford Rhyne Airpark, you should consider listing it here.  To start the listing process, click on the button below
 
Add a business
 

Other Pages about Raeford Rhyne Airpark

Update a link
 
Copyright © AirNav, LLC. All rights reserved. Privacy Policy  Contact